createdAt,value
2018-03-04T00:00:53.383Z,35.98
2018-03-04T00:01:53.382Z,36.01
2018-03-04T00:02:53.392Z,35.98
2018-03-04T00:03:53.388Z,36.01
2018-03-04T00:04:53.393Z,36.01
2018-03-04T00:05:53.376Z,36.01
2018-03-04T00:06:53.362Z,36.03
2018-03-04T00:07:53.379Z,36.01
2018-03-04T00:08:53.381Z,36.01
2018-03-04T00:09:53.409Z,36.03
2018-03-04T00:10:53.457Z,36.03
2018-03-04T00:11:53.411Z,35.98
2018-03-04T00:12:53.377Z,35.95
2018-03-04T00:13:53.376Z,36.02
2018-03-04T00:14:53.383Z,36.01
2018-03-04T00:15:53.384Z,36
2018-03-04T00:16:53.398Z,36
2018-03-04T00:17:53.384Z,36.06
2018-03-04T00:18:53.377Z,36.03
2018-03-04T00:19:53.400Z,36.01
2018-03-04T00:20:53.361Z,36.07
2018-03-04T00:21:53.377Z,36.04
2018-03-04T00:22:53.352Z,35.99
2018-03-04T00:23:53.385Z,36.05
2018-03-04T00:24:53.430Z,36.04
2018-03-04T00:25:53.380Z,36
2018-03-04T00:26:53.370Z,36.01
2018-03-04T00:27:53.405Z,36.02
2018-03-04T00:28:53.385Z,36.04
2018-03-04T00:29:53.365Z,36
2018-03-04T00:30:53.373Z,35.97
2018-03-04T00:31:53.359Z,36
2018-03-04T00:32:53.371Z,36
2018-03-04T00:33:53.368Z,35.98
2018-03-04T00:34:53.375Z,35.99
2018-03-04T00:35:53.373Z,36.08
2018-03-04T00:36:53.350Z,36.03
2018-03-04T00:37:53.395Z,36
2018-03-04T00:38:53.397Z,36.02
2018-03-04T00:39:53.378Z,36.05
2018-03-04T00:40:53.362Z,35.98
2018-03-04T00:41:53.373Z,35.98
2018-03-04T00:42:53.343Z,35.99
2018-03-04T00:43:53.393Z,35.97
2018-03-04T00:44:53.378Z,35.99
2018-03-04T00:45:53.357Z,36.01
2018-03-04T00:46:53.387Z,36.01
2018-03-04T00:47:53.353Z,36.01
2018-03-04T00:48:53.355Z,36.03
2018-03-04T00:49:53.364Z,36.02
2018-03-04T00:50:53.358Z,35.99
2018-03-04T00:51:53.356Z,36.01
2018-03-04T00:52:53.362Z,36.03
2018-03-04T00:53:53.339Z,36.07
2018-03-04T00:54:53.362Z,36
2018-03-04T00:55:53.363Z,36.04
2018-03-04T00:56:53.364Z,35.96
2018-03-04T00:57:53.390Z,36.03
2018-03-04T00:58:53.375Z,36.05
2018-03-04T00:59:53.333Z,36.04
2018-03-04T01:00:53.358Z,36.01
2018-03-04T01:01:53.373Z,36.01
2018-03-04T01:02:53.346Z,36.08
2018-03-04T01:03:53.379Z,36.05
2018-03-04T01:04:53.386Z,36.05
2018-03-04T01:05:53.344Z,36.05
2018-03-04T01:06:53.351Z,36.01
2018-03-04T01:07:53.465Z,36.05
2018-03-04T01:08:53.335Z,36.05
2018-03-04T01:09:53.340Z,36.05
2018-03-04T01:10:53.358Z,36.04
2018-03-04T01:11:53.346Z,36.06
2018-03-04T01:12:53.385Z,36.06
2018-03-04T01:13:53.356Z,36.1
2018-03-04T01:14:53.334Z,36.06
2018-03-04T01:15:53.334Z,36.01
2018-03-04T01:16:53.337Z,36.02
2018-03-04T01:17:53.333Z,36.08
2018-03-04T01:18:53.372Z,36.02
2018-03-04T01:19:53.364Z,36.07
2018-03-04T01:20:53.365Z,36.09
2018-03-04T01:21:53.327Z,36.09
2018-03-04T01:22:53.431Z,36.09
2018-03-04T01:23:53.368Z,36.08
2018-03-04T01:24:53.398Z,36.11
2018-03-04T01:25:53.416Z,36.11
2018-03-04T01:26:53.374Z,36.11
2018-03-04T01:27:53.350Z,36.11
2018-03-04T01:28:53.347Z,36.06
2018-03-04T01:29:53.342Z,36.1
2018-03-04T01:30:53.336Z,36.05
2018-03-04T01:31:53.350Z,36.04
2018-03-04T01:32:53.372Z,36.07
2018-03-04T01:33:53.359Z,36.06
2018-03-04T01:34:53.338Z,36.06
2018-03-04T01:35:53.360Z,36.04
2018-03-04T01:36:53.340Z,36.1
2018-03-04T01:37:53.340Z,36.08
2018-03-04T01:38:53.362Z,36.02
2018-03-04T01:39:53.346Z,36.08
2018-03-04T01:40:53.344Z,36.08
2018-03-04T01:41:53.367Z,36.11
2018-03-04T01:42:53.381Z,36.1
2018-03-04T01:43:53.340Z,36.11
2018-03-04T01:44:53.397Z,36.11
2018-03-04T01:45:53.344Z,36.07
2018-03-04T01:46:53.337Z,36.08
2018-03-04T01:47:53.339Z,36.08
2018-03-04T01:48:53.341Z,36.06
2018-03-04T01:49:53.355Z,36.08
2018-03-04T01:50:53.397Z,36.08
2018-03-04T01:51:53.356Z,36.08
2018-03-04T01:52:53.415Z,36.09
2018-03-04T01:53:53.336Z,36.1
2018-03-04T01:54:53.338Z,36.1
2018-03-04T01:55:53.350Z,36.15
2018-03-04T01:56:53.422Z,36.14
2018-03-04T01:57:53.359Z,36.17
2018-03-04T01:58:53.631Z,36.11
2018-03-04T01:59:53.375Z,36.11
2018-03-04T02:00:53.327Z,36.15
2018-03-04T02:01:53.321Z,36.2
2018-03-04T02:02:53.366Z,36.19
2018-03-04T02:03:53.336Z,36.17
2018-03-04T02:04:53.341Z,36.18
2018-03-04T02:05:53.326Z,36.15
2018-03-04T02:06:53.348Z,36.14
2018-03-04T02:07:53.605Z,36.21
2018-03-04T02:08:53.337Z,36.22
2018-03-04T02:09:53.366Z,36.14
2018-03-04T02:10:53.390Z,36.17
2018-03-04T02:11:53.353Z,36.2
2018-03-04T02:12:53.360Z,36.21
2018-03-04T02:13:53.335Z,36.2
2018-03-04T02:14:53.376Z,36.22
2018-03-04T02:15:53.340Z,36.18
2018-03-04T02:16:53.365Z,36.15
2018-03-04T02:17:53.360Z,36.16
2018-03-04T02:18:53.328Z,36.2
2018-03-04T02:19:53.320Z,36.21
2018-03-04T02:20:53.360Z,36.2
2018-03-04T02:21:53.339Z,36.19
2018-03-04T02:22:53.599Z,36.23
2018-03-04T02:23:53.376Z,36.21
2018-03-04T02:24:53.313Z,36.2
2018-03-04T02:25:53.334Z,36.25
2018-03-04T02:26:53.342Z,36.23
2018-03-04T02:27:53.331Z,36.26
2018-03-04T02:28:53.329Z,36.27
2018-03-04T02:29:53.323Z,36.23
2018-03-04T02:30:53.372Z,36.25
2018-03-04T02:31:53.371Z,36.19
2018-03-04T02:32:53.364Z,36.25
2018-03-04T02:33:53.350Z,36.26
2018-03-04T02:34:53.332Z,36.26
2018-03-04T02:35:53.353Z,36.28
2018-03-04T02:36:53.324Z,36.23
2018-03-04T02:37:53.332Z,36.3
2018-03-04T02:38:53.363Z,36.27
2018-03-04T02:39:53.335Z,36.27
2018-03-04T02:40:53.327Z,36.26
2018-03-04T02:41:53.352Z,36.25
2018-03-04T02:42:53.331Z,36.24
2018-03-04T02:43:53.336Z,36.28
2018-03-04T02:44:53.328Z,36.28
2018-03-04T02:45:53.349Z,36.3
2018-03-04T02:46:53.324Z,36.28
2018-03-04T02:47:53.339Z,36.28
2018-03-04T02:48:53.341Z,36.3
2018-03-04T02:49:53.313Z,36.34
2018-03-04T02:50:53.340Z,36.29
2018-03-04T02:51:53.339Z,36.3
2018-03-04T02:52:53.323Z,36.29
2018-03-04T02:53:53.307Z,36.3
2018-03-04T02:54:53.320Z,36.3
2018-03-04T02:55:53.345Z,36.3
2018-03-04T02:56:53.344Z,36.26
2018-03-04T02:57:53.324Z,36.3
2018-03-04T02:58:53.340Z,36.3
2018-03-04T02:59:53.398Z,36.34
2018-03-04T03:00:53.376Z,36.29
2018-03-04T03:01:53.346Z,36.3
2018-03-04T03:02:53.337Z,36.25
2018-03-04T03:03:53.341Z,36.31
2018-03-04T03:04:53.307Z,36.3
2018-03-04T03:05:53.322Z,36.28
2018-03-04T03:06:53.372Z,36.33
2018-03-04T03:07:53.597Z,36.29
2018-03-04T03:08:53.312Z,36.36
2018-03-04T03:09:53.306Z,36.3
2018-03-04T03:10:53.320Z,36.32
2018-03-04T03:11:53.318Z,36.31
2018-03-04T03:12:53.332Z,36.34
2018-03-04T03:13:53.314Z,36.31
2018-03-04T03:14:53.302Z,36.3
2018-03-04T03:15:53.581Z,36.31
2018-03-04T03:16:53.311Z,36.32
2018-03-04T03:17:53.335Z,36.28
2018-03-04T03:18:53.313Z,36.32
2018-03-04T03:19:53.318Z,36.28
2018-03-04T03:20:53.340Z,36.35
2018-03-04T03:21:53.320Z,36.36
2018-03-04T03:22:53.319Z,36.4
2018-03-04T03:23:53.328Z,36.33
2018-03-04T03:24:53.300Z,36.39
2018-03-04T03:25:53.388Z,36.39
2018-03-04T03:26:53.498Z,36.37
2018-03-04T03:27:53.344Z,36.35
2018-03-04T03:28:53.293Z,36.35
2018-03-04T03:29:53.335Z,36.36
2018-03-04T03:30:53.786Z,36.37
2018-03-04T03:31:53.314Z,36.35
2018-03-04T03:32:53.316Z,36.35
2018-03-04T03:33:53.282Z,36.37
2018-03-04T03:34:55.312Z,36.37
2018-03-04T03:35:53.312Z,36.34
2018-03-04T03:36:53.331Z,36.29
2018-03-04T03:37:53.302Z,36.36
2018-03-04T03:38:53.296Z,36.37
2018-03-04T03:39:53.300Z,36.39
2018-03-04T03:40:53.293Z,36.39
2018-03-04T03:41:53.558Z,36.38
2018-03-04T03:42:53.300Z,36.37
2018-03-04T03:43:53.304Z,36.38
2018-03-04T03:44:53.312Z,36.37
2018-03-04T03:45:53.287Z,36.36
2018-03-04T03:46:53.472Z,36.39
2018-03-04T03:47:53.279Z,36.39
2018-03-04T03:48:53.286Z,36.39
2018-03-04T03:49:53.299Z,36.35
2018-03-04T03:50:53.302Z,36.4
2018-03-04T03:51:53.313Z,36.37
2018-03-04T03:52:53.295Z,36.37
2018-03-04T03:53:53.293Z,36.42
2018-03-04T03:54:53.322Z,36.42
2018-03-04T03:55:53.295Z,36.38
2018-03-04T03:56:53.332Z,36.4
2018-03-04T03:57:53.300Z,36.4
2018-03-04T03:58:53.298Z,36.37
2018-03-04T03:59:53.297Z,36.44
2018-03-04T04:00:53.292Z,36.44
2018-03-04T04:01:53.358Z,36.43
2018-03-04T04:02:53.309Z,36.39
2018-03-04T04:03:53.307Z,36.44
2018-03-04T04:04:53.315Z,36.42
2018-03-04T04:05:53.306Z,36.42
2018-03-04T04:06:53.280Z,36.38
2018-03-04T04:07:53.318Z,36.39
2018-03-04T04:08:53.296Z,36.42
2018-03-04T04:09:53.296Z,36.36
2018-03-04T04:10:53.322Z,36.43
2018-03-04T04:11:53.270Z,36.4
2018-03-04T04:12:59.426Z,36.41
2018-03-04T04:13:53.288Z,36.41
2018-03-04T04:14:53.281Z,36.42
2018-03-04T04:15:53.300Z,36.44
2018-03-04T04:16:53.313Z,36.44
2018-03-04T04:17:53.305Z,36.42
2018-03-04T04:18:53.311Z,36.44
2018-03-04T04:19:53.289Z,36.44
2018-03-04T04:20:53.304Z,36.41
2018-03-04T04:21:53.302Z,36.42
2018-03-04T04:22:53.290Z,36.42
2018-03-04T04:23:53.286Z,36.42
2018-03-04T04:24:53.276Z,36.45
2018-03-04T04:25:53.321Z,36.46
2018-03-04T04:26:53.305Z,36.42
2018-03-04T04:27:53.278Z,36.42
2018-03-04T04:28:53.301Z,36.46
2018-03-04T04:29:53.295Z,36.42
2018-03-04T04:30:53.285Z,36.41
2018-03-04T04:31:53.271Z,36.44
2018-03-04T04:32:53.292Z,36.42
2018-03-04T04:33:53.270Z,36.4
2018-03-04T04:34:53.287Z,36.45
2018-03-04T04:35:53.297Z,36.46
2018-03-04T04:36:53.285Z,36.46
2018-03-04T04:37:53.270Z,36.45
2018-03-04T04:38:53.293Z,36.46
2018-03-04T04:39:53.279Z,36.43
2018-03-04T04:40:53.278Z,36.42
2018-03-04T04:41:53.286Z,36.46
2018-03-04T04:42:53.285Z,36.44
2018-03-04T04:43:53.285Z,36.49
2018-03-04T04:44:53.273Z,36.47
2018-03-04T04:45:53.274Z,36.48
2018-03-04T04:46:53.282Z,36.42
2018-03-04T04:47:53.253Z,36.43
2018-03-04T04:48:53.281Z,36.44
2018-03-04T04:49:53.272Z,36.46
2018-03-04T04:50:53.275Z,36.46
2018-03-04T04:51:53.254Z,36.39
2018-03-04T04:52:53.335Z,36.42
2018-03-04T04:53:53.585Z,36.46
2018-03-04T04:54:53.269Z,36.43
2018-03-04T04:55:53.264Z,36.42
2018-03-04T04:56:53.292Z,36.45
2018-03-04T04:57:53.272Z,36.45
2018-03-04T04:58:53.292Z,36.42
2018-03-04T04:59:53.266Z,36.5
2018-03-04T05:00:53.269Z,36.49
2018-03-04T05:01:53.281Z,36.49
2018-03-04T05:02:53.299Z,36.55
2018-03-04T05:03:53.287Z,36.51
2018-03-04T05:04:53.267Z,36.56
2018-03-04T05:05:53.304Z,36.57
2018-03-04T05:06:53.252Z,36.58
2018-03-04T05:07:53.258Z,36.64
2018-03-04T05:08:53.251Z,36.65
2018-03-04T05:09:53.282Z,36.61
2018-03-04T05:10:53.277Z,36.61
2018-03-04T05:11:53.255Z,36.63
2018-03-04T05:12:53.292Z,36.69
2018-03-04T05:13:53.254Z,36.6
2018-03-04T05:14:53.263Z,36.63
2018-03-04T05:15:53.259Z,36.69
2018-03-04T05:16:53.250Z,36.75
2018-03-04T05:17:53.299Z,36.77
2018-03-04T05:18:53.268Z,36.72
2018-03-04T05:19:53.272Z,36.75
2018-03-04T05:20:53.300Z,36.77
2018-03-04T05:21:53.262Z,36.77
2018-03-04T05:22:53.261Z,36.79
2018-03-04T05:23:53.264Z,36.78
2018-03-04T05:24:53.252Z,36.79
2018-03-04T05:25:53.292Z,36.79
2018-03-04T05:26:53.359Z,36.74
2018-03-04T05:27:53.352Z,36.72
2018-03-04T05:28:53.254Z,36.75
2018-03-04T05:29:53.259Z,36.73
2018-03-04T05:30:53.575Z,36.73
2018-03-04T05:31:53.273Z,36.71
2018-03-04T05:32:53.264Z,36.72
2018-03-04T05:33:53.235Z,36.7
2018-03-04T05:34:53.268Z,36.67
2018-03-04T05:35:53.277Z,36.68
2018-03-04T05:36:53.253Z,36.69
2018-03-04T05:37:53.250Z,36.69
2018-03-04T05:38:53.256Z,36.58
2018-03-04T05:39:53.232Z,36.66
2018-03-04T05:40:53.264Z,36.64
2018-03-04T05:41:53.289Z,36.69
2018-03-04T05:42:53.282Z,36.66
2018-03-04T05:43:53.259Z,36.62
2018-03-04T05:44:53.257Z,36.7
2018-03-04T05:45:53.266Z,36.63
2018-03-04T05:46:53.280Z,36.64
2018-03-04T05:47:53.255Z,36.69
2018-03-04T05:48:53.255Z,36.7
2018-03-04T05:49:53.252Z,36.69
2018-03-04T05:50:53.254Z,36.66
2018-03-04T05:51:53.284Z,36.61
2018-03-04T05:52:53.251Z,36.73
2018-03-04T05:53:53.265Z,36.62
2018-03-04T05:54:53.243Z,36.66
2018-03-04T05:55:53.243Z,36.7
2018-03-04T05:56:53.506Z,36.66
2018-03-04T05:57:53.256Z,36.64
2018-03-04T05:58:53.251Z,36.69
2018-03-04T05:59:53.249Z,36.64
2018-03-04T06:00:53.257Z,36.64
2018-03-04T06:01:53.265Z,36.69
2018-03-04T06:02:53.291Z,36.65
2018-03-04T06:03:53.267Z,36.71
2018-03-04T06:04:53.250Z,36.65
2018-03-04T06:05:53.231Z,36.67
2018-03-04T06:06:53.274Z,36.66
2018-03-04T06:07:53.281Z,36.7
2018-03-04T06:08:53.287Z,36.69
2018-03-04T06:09:53.238Z,36.68
2018-03-04T06:10:53.277Z,36.62
2018-03-04T06:11:53.258Z,36.63
2018-03-04T06:12:53.237Z,36.71
2018-03-04T06:13:53.254Z,36.67
2018-03-04T06:14:53.226Z,36.66
2018-03-04T06:15:53.234Z,36.69
2018-03-04T06:16:53.505Z,36.65
2018-03-04T06:17:53.271Z,36.7
2018-03-04T06:18:53.240Z,36.66
2018-03-04T06:19:53.249Z,36.7
2018-03-04T06:20:53.252Z,36.68
2018-03-04T06:21:53.252Z,36.64
2018-03-04T06:22:53.251Z,36.67
2018-03-04T06:23:53.249Z,36.68
2018-03-04T06:24:53.235Z,36.65
2018-03-04T06:25:53.260Z,36.68
2018-03-04T06:26:53.249Z,36.73
2018-03-04T06:27:53.230Z,36.67
2018-03-04T06:28:53.229Z,36.64
2018-03-04T06:29:53.219Z,36.65
2018-03-04T06:30:53.512Z,36.65
2018-03-04T06:31:53.241Z,36.65
2018-03-04T06:32:53.301Z,36.69
2018-03-04T06:33:53.250Z,36.61
2018-03-04T06:34:53.247Z,36.64
2018-03-04T06:35:53.257Z,36.69
2018-03-04T06:36:53.251Z,36.66
2018-03-04T06:37:53.241Z,36.62
2018-03-04T06:38:53.224Z,36.64
2018-03-04T06:39:53.241Z,36.65
2018-03-04T06:40:53.237Z,36.65
2018-03-04T06:41:53.245Z,36.61
2018-03-04T06:42:53.285Z,36.62
2018-03-04T06:43:53.250Z,36.6
2018-03-04T06:44:53.283Z,36.64
2018-03-04T06:45:53.293Z,36.63
2018-03-04T06:46:53.251Z,36.59
2018-03-04T06:47:53.252Z,36.58
2018-03-04T06:48:53.255Z,36.62
2018-03-04T06:49:53.264Z,36.62
2018-03-04T06:50:53.235Z,36.63
2018-03-04T06:51:53.240Z,36.62
2018-03-04T06:52:53.244Z,36.62
2018-03-04T06:53:53.256Z,36.6
2018-03-04T06:54:53.238Z,36.63
2018-03-04T06:55:53.240Z,36.65
2018-03-04T06:56:53.263Z,36.61
2018-03-04T06:57:53.468Z,36.57
2018-03-04T06:58:53.244Z,36.63
2018-03-04T06:59:53.253Z,36.64
2018-03-04T07:00:53.272Z,36.59
2018-03-04T07:01:53.233Z,36.56
2018-03-04T07:02:53.257Z,36.58
2018-03-04T07:03:53.225Z,36.59
2018-03-04T07:04:53.484Z,36.6
2018-03-04T07:05:53.238Z,36.59
2018-03-04T07:06:53.219Z,36.59
2018-03-04T07:07:53.242Z,36.6
2018-03-04T07:08:53.260Z,36.59
2018-03-04T07:09:53.255Z,36.56
2018-03-04T07:10:53.222Z,36.54
2018-03-04T07:11:53.228Z,36.57
2018-03-04T07:12:53.226Z,36.57
2018-03-04T07:13:53.239Z,36.6
2018-03-04T07:14:53.236Z,36.53
2018-03-04T07:15:53.244Z,36.53
2018-03-04T07:16:53.409Z,36.52
2018-03-04T07:17:53.238Z,36.57
2018-03-04T07:18:53.238Z,36.57
2018-03-04T07:19:53.241Z,36.55
2018-03-04T07:20:53.207Z,36.54
2018-03-04T07:21:53.218Z,36.56
2018-03-04T07:22:53.268Z,36.55
2018-03-04T07:23:53.221Z,36.52
2018-03-04T07:24:53.260Z,36.55
2018-03-04T07:25:53.229Z,36.53
2018-03-04T07:26:53.275Z,36.58
2018-03-04T07:27:53.364Z,36.5
2018-03-04T07:28:53.325Z,36.54
2018-03-04T07:29:53.499Z,36.55
2018-03-04T07:30:53.216Z,36.55
2018-03-04T07:31:53.220Z,36.53
2018-03-04T07:32:53.235Z,36.52
2018-03-04T07:33:53.227Z,36.52
2018-03-04T07:34:53.266Z,36.49
2018-03-04T07:35:53.225Z,36.5
2018-03-04T07:36:53.214Z,36.5
2018-03-04T07:37:53.214Z,36.52
2018-03-04T07:38:53.247Z,36.53
2018-03-04T07:39:53.481Z,36.5
2018-03-04T07:40:53.247Z,36.48
2018-03-04T07:41:53.200Z,36.48
2018-03-04T07:42:53.211Z,36.44
2018-03-04T07:43:53.212Z,36.5
2018-03-04T07:44:53.256Z,36.46
2018-03-04T07:45:53.219Z,36.5
2018-03-04T07:46:53.225Z,36.48
2018-03-04T07:47:53.212Z,36.5
2018-03-04T07:48:53.243Z,36.46
2018-03-04T07:49:53.241Z,36.46
2018-03-04T07:50:53.214Z,36.46
2018-03-04T07:51:53.268Z,36.44
2018-03-04T07:52:53.218Z,36.48
2018-03-04T07:53:53.207Z,36.46
2018-03-04T07:54:53.232Z,36.47
2018-03-04T07:55:53.192Z,36.46
2018-03-04T07:56:53.217Z,36.47
2018-03-04T07:57:53.223Z,36.48
2018-03-04T07:58:53.187Z,36.44
2018-03-04T07:59:53.232Z,36.46
2018-03-04T08:00:53.224Z,36.41
2018-03-04T08:01:53.217Z,36.48
2018-03-04T08:02:53.221Z,36.4
2018-03-04T08:03:53.227Z,36.48
2018-03-04T08:04:53.234Z,36.45
2018-03-04T08:05:53.213Z,36.48
2018-03-04T08:06:53.244Z,36.39
2018-03-04T08:07:53.254Z,36.42
2018-03-04T08:08:53.216Z,36.45
2018-03-04T08:09:53.238Z,36.44
2018-03-04T08:10:53.218Z,36.44
2018-03-04T08:11:53.220Z,36.4
2018-03-04T08:12:53.224Z,36.42
2018-03-04T08:13:53.218Z,36.44
2018-03-04T08:14:53.198Z,36.4
2018-03-04T08:15:53.197Z,36.42
2018-03-04T08:16:53.269Z,36.42
2018-03-04T08:17:53.210Z,36.43
2018-03-04T08:18:53.216Z,36.39
2018-03-04T08:19:53.210Z,36.43
2018-03-04T08:20:53.192Z,36.41
2018-03-04T08:21:53.223Z,36.42
2018-03-04T08:22:53.215Z,36.42
2018-03-04T08:23:53.232Z,36.39
2018-03-04T08:24:53.205Z,36.37
2018-03-04T08:25:53.206Z,36.4
2018-03-04T08:26:53.192Z,36.36
2018-03-04T08:27:53.205Z,36.39
2018-03-04T08:28:53.225Z,36.38
2018-03-04T08:29:53.188Z,36.41
2018-03-04T08:30:53.201Z,36.45
2018-03-04T08:31:53.222Z,36.36
2018-03-04T08:32:53.205Z,36.4
2018-03-04T08:33:53.481Z,36.36
2018-03-04T08:34:53.198Z,36.42
2018-03-04T08:35:53.212Z,36.38
2018-03-04T08:36:53.192Z,36.4
2018-03-04T08:37:53.192Z,36.39
2018-03-04T08:38:53.215Z,36.37
2018-03-04T08:39:53.235Z,36.4
2018-03-04T08:40:53.193Z,36.36
2018-03-04T08:41:53.192Z,36.33
2018-03-04T08:42:53.190Z,36.34
2018-03-04T08:43:53.220Z,36.36
2018-03-04T08:44:53.196Z,36.34
2018-03-04T08:45:53.204Z,36.4
2018-03-04T08:46:53.198Z,36.32
2018-03-04T08:47:53.280Z,36.44
2018-03-04T08:48:53.182Z,36.42
2018-03-04T08:49:53.229Z,36.34
2018-03-04T08:50:53.213Z,36.32
2018-03-04T08:51:53.205Z,36.34
2018-03-04T08:52:53.190Z,36.34
2018-03-04T08:53:53.203Z,36.32
2018-03-04T08:54:53.194Z,36.37
2018-03-04T08:55:53.194Z,36.36
2018-03-04T08:56:53.209Z,36.32
2018-03-04T08:57:53.238Z,36.32
2018-03-04T08:58:53.175Z,36.33
2018-03-04T08:59:53.196Z,36.32
2018-03-04T09:00:53.190Z,36.34
2018-03-04T09:01:53.200Z,36.36
2018-03-04T09:02:53.210Z,36.3
2018-03-04T09:03:53.220Z,36.37
2018-03-04T09:04:53.196Z,36.37
2018-03-04T09:05:53.181Z,36.35
2018-03-04T09:06:53.196Z,36.36
2018-03-04T09:07:53.177Z,36.32
2018-03-04T09:08:53.188Z,36.3
2018-03-04T09:09:53.192Z,36.33
2018-03-04T09:10:53.200Z,36.32
2018-03-04T09:11:53.189Z,36.34
2018-03-04T09:12:53.180Z,36.33
2018-03-04T09:13:53.185Z,36.33
2018-03-04T09:14:53.461Z,36.35
2018-03-04T09:15:53.185Z,36.26
2018-03-04T09:16:53.182Z,36.3
2018-03-04T09:17:53.172Z,36.33
2018-03-04T09:18:53.251Z,36.34
2018-03-04T09:19:53.481Z,36.35
2018-03-04T09:20:53.447Z,36.31
2018-03-04T09:21:53.185Z,36.35
2018-03-04T09:22:53.160Z,36.33
2018-03-04T09:23:53.188Z,36.31
2018-03-04T09:24:53.195Z,36.29
2018-03-04T09:25:53.452Z,36.29
2018-03-04T09:26:53.168Z,36.33
2018-03-04T09:27:53.174Z,36.32
2018-03-04T09:28:53.271Z,36.36
2018-03-04T09:29:53.273Z,36.33
2018-03-04T09:30:53.201Z,36.29
2018-03-04T09:31:53.183Z,36.29
2018-03-04T09:32:53.154Z,36.28
2018-03-04T09:33:53.168Z,36.3
2018-03-04T09:34:53.175Z,36.3
2018-03-04T09:35:53.193Z,36.31
2018-03-04T09:36:53.169Z,36.29
2018-03-04T09:37:53.147Z,36.33
2018-03-04T09:38:53.173Z,36.32
2018-03-04T09:39:53.190Z,36.32
2018-03-04T09:40:53.184Z,36.32
2018-03-04T09:41:53.234Z,36.29
2018-03-04T09:42:53.191Z,36.32
2018-03-04T09:43:53.177Z,36.31
2018-03-04T09:44:53.161Z,36.31
2018-03-04T09:45:53.190Z,36.3
2018-03-04T09:46:53.193Z,36.28
2018-03-04T09:47:53.199Z,36.31
2018-03-04T09:48:53.183Z,36.26
2018-03-04T09:49:53.192Z,36.3
2018-03-04T09:50:53.177Z,36.32
2018-03-04T09:51:53.196Z,36.3
2018-03-04T09:52:53.213Z,36.32
2018-03-04T09:53:53.177Z,36.26
2018-03-04T09:54:53.156Z,36.27
2018-03-04T09:55:53.168Z,36.31
2018-03-04T09:56:53.181Z,36.31
2018-03-04T09:57:53.217Z,36.26
2018-03-04T09:58:53.185Z,36.34
2018-03-04T09:59:53.162Z,36.26
2018-03-04T10:00:53.206Z,36.33
2018-03-04T10:01:53.192Z,36.31
2018-03-04T10:02:53.208Z,36.29
2018-03-04T10:03:53.194Z,36.29
2018-03-04T10:04:53.238Z,36.37
2018-03-04T10:05:53.166Z,36.28
2018-03-04T10:06:53.195Z,36.29
2018-03-04T10:07:53.216Z,36.29
2018-03-04T10:08:53.197Z,36.25
2018-03-04T10:09:53.201Z,36.3
2018-03-04T10:10:53.164Z,36.31
2018-03-04T10:11:53.167Z,36.33
2018-03-04T10:12:53.224Z,36.28
2018-03-04T10:13:53.242Z,36.32
2018-03-04T10:14:53.335Z,36.24
2018-03-04T10:15:53.171Z,36.31
2018-03-04T10:16:53.168Z,36.27
2018-03-04T10:17:53.166Z,36.31
2018-03-04T10:18:53.222Z,36.33
2018-03-04T10:19:53.194Z,36.29
2018-03-04T10:20:53.167Z,36.29
2018-03-04T10:21:53.205Z,36.28
2018-03-04T10:22:53.172Z,36.28
2018-03-04T10:23:53.154Z,36.3
2018-03-04T10:24:53.175Z,36.32
2018-03-04T10:25:53.178Z,36.27
2018-03-04T10:26:53.148Z,36.29
2018-03-04T10:27:53.172Z,36.33
2018-03-04T10:28:53.172Z,36.27
2018-03-04T10:29:53.215Z,36.55
2018-03-04T10:30:53.147Z,36.34
2018-03-04T10:31:53.154Z,36.29
2018-03-04T10:32:53.205Z,36.48
2018-03-04T10:33:53.183Z,36.63
2018-03-04T10:34:53.212Z,36.85
2018-03-04T10:35:53.173Z,36.33
2018-03-04T10:36:53.228Z,36.53
2018-03-04T10:37:53.405Z,36.9
2018-03-04T10:38:53.185Z,36.71
2018-03-04T10:39:53.167Z,36.9
2018-03-04T10:40:53.158Z,37.03
2018-03-04T10:41:53.157Z,37.37
2018-03-04T10:42:53.136Z,37.4
2018-03-04T10:43:53.143Z,37.46
2018-03-04T10:44:53.258Z,37.41
2018-03-04T10:45:53.174Z,37.54
2018-03-04T10:46:53.156Z,37.44
2018-03-04T10:47:30.594Z,39.02
2018-03-04T10:47:42.404Z,37.83
2018-03-04T10:48:42.354Z,36.69
2018-03-04T10:49:42.471Z,36.55
2018-03-04T10:50:42.365Z,36.55
2018-03-04T10:51:42.354Z,36.66
2018-03-04T10:52:42.334Z,36.64
2018-03-04T10:53:42.356Z,36.58
2018-03-04T10:54:42.358Z,36.55
2018-03-04T10:55:42.408Z,36.63
2018-03-04T10:56:42.342Z,36.57
2018-03-04T10:57:42.346Z,36.59
2018-03-04T10:58:42.878Z,36.69
2018-03-04T10:59:42.361Z,36.68
2018-03-04T11:00:42.364Z,36.8
2018-03-04T11:01:42.360Z,36.55
2018-03-04T11:02:42.368Z,36.71
2018-03-04T11:03:42.353Z,36.54
2018-03-04T11:04:42.337Z,36.54
2018-03-04T11:05:42.362Z,36.63
2018-03-04T11:06:42.352Z,36.69
2018-03-04T11:07:42.352Z,36.59
2018-03-04T11:08:42.350Z,36.62
2018-03-04T11:09:42.689Z,36.64
2018-03-04T11:10:42.350Z,36.55
2018-03-04T11:11:42.386Z,36.55
2018-03-04T11:12:42.341Z,36.55
2018-03-04T11:13:42.341Z,36.59
2018-03-04T11:14:42.366Z,36.6
2018-03-04T11:15:42.345Z,36.57
2018-03-04T11:16:42.352Z,36.56
2018-03-04T11:17:48.352Z,36.69
2018-03-04T11:18:48.312Z,36.65
2018-03-04T11:19:48.340Z,36.64
2018-03-04T11:20:48.345Z,36.52
2018-03-04T11:21:48.397Z,36.5
2018-03-04T11:22:48.317Z,36.63
2018-03-04T11:23:48.356Z,36.53
2018-03-04T11:24:44.557Z,36.45
2018-03-04T11:25:44.549Z,36.66
2018-03-04T11:26:44.586Z,36.59
2018-03-04T11:27:44.553Z,36.61
2018-03-04T11:28:45.444Z,36.45
2018-03-04T11:31:17.459Z,37.4
2018-03-04T11:32:17.394Z,36.28
2018-03-04T11:33:17.433Z,36.05
2018-03-04T11:34:17.817Z,36.19
2018-03-04T11:35:17.457Z,36.43
2018-03-04T11:36:17.391Z,36.8
2018-03-04T11:37:17.828Z,36.9
2018-03-04T11:38:17.822Z,36.73
2018-03-04T11:39:17.523Z,36.87
2018-03-04T11:40:17.455Z,37.5
2018-03-04T11:41:17.845Z,37.63
2018-03-04T11:42:17.416Z,37.74
2018-03-04T11:43:17.870Z,37.41
2018-03-04T11:44:17.463Z,37.77
2018-03-04T11:45:17.401Z,37.81
2018-03-04T11:46:17.452Z,37.25
2018-03-04T11:47:17.517Z,37.56
2018-03-04T11:48:17.496Z,37.5
2018-03-04T11:49:17.673Z,37.65
2018-03-04T11:50:17.428Z,37.56
2018-03-04T11:51:17.509Z,37.73
2018-03-04T11:52:17.599Z,37.73
2018-03-04T11:53:17.278Z,37.66
2018-03-04T11:54:17.253Z,37.85
2018-03-04T11:55:17.279Z,38.01
2018-03-04T11:56:17.324Z,37.84
2018-03-04T11:57:17.353Z,37.86
2018-03-04T11:58:17.364Z,38
2018-03-04T11:59:17.203Z,37.57
2018-03-04T12:00:17.256Z,37.52
2018-03-04T12:01:17.283Z,38.04
2018-03-04T12:02:17.255Z,37.71
2018-03-04T12:03:17.192Z,37.47
2018-03-04T12:04:17.252Z,37.35
2018-03-04T12:05:17.193Z,37.52
2018-03-04T12:06:17.174Z,37.63
2018-03-04T12:07:17.166Z,37.54
2018-03-04T12:08:17.196Z,37.42
2018-03-04T12:09:17.796Z,37.69
2018-03-04T12:10:17.212Z,37.87
2018-03-04T12:11:17.168Z,37.49
2018-03-04T12:12:17.179Z,37.37
2018-03-04T12:13:17.190Z,37.48
2018-03-04T12:14:17.699Z,37.26
2018-03-04T12:15:17.614Z,37.21
2018-03-04T12:16:17.293Z,37.13
2018-03-04T12:17:17.203Z,37.11
2018-03-04T12:18:17.201Z,37.04
2018-03-04T12:19:17.601Z,36.95
2018-03-04T12:20:17.185Z,37.01
2018-03-04T12:21:17.177Z,36.96
2018-03-04T12:22:17.183Z,36.97
2018-03-04T12:23:17.157Z,36.95
2018-03-04T12:24:17.158Z,37.01
2018-03-04T12:25:17.416Z,37.26
2018-03-04T12:26:17.256Z,37.33
2018-03-04T12:27:17.217Z,37.45
2018-03-04T12:28:17.147Z,37.72
2018-03-04T12:29:17.176Z,37.76
2018-03-04T12:30:17.146Z,37.73
2018-03-04T12:31:17.432Z,37.68
2018-03-04T12:32:17.141Z,37.73
2018-03-04T12:33:17.300Z,37.81
2018-03-04T12:34:17.151Z,37.75
2018-03-04T12:35:17.289Z,37.67
2018-03-04T12:36:17.184Z,37.56
2018-03-04T12:37:17.143Z,37.6
2018-03-04T12:38:17.191Z,37.67
2018-03-04T12:39:17.150Z,37.51
2018-03-04T12:40:17.141Z,37.36
2018-03-04T12:41:17.153Z,37.13
2018-03-04T12:42:17.184Z,37.16
2018-03-04T12:43:17.200Z,37.1
2018-03-04T12:44:17.148Z,37.12
2018-03-04T12:45:17.158Z,37.12
2018-03-04T12:46:17.163Z,37.19
2018-03-04T12:47:17.171Z,37.12
2018-03-04T12:48:17.140Z,37.15
2018-03-04T12:49:17.207Z,37.15
2018-03-04T12:50:17.146Z,37.07
2018-03-04T12:51:17.148Z,37.12
2018-03-04T12:52:17.182Z,37.08
2018-03-04T12:53:17.154Z,37.07
2018-03-04T12:54:17.122Z,37.06
2018-03-04T12:55:17.141Z,37.04
2018-03-04T12:56:17.895Z,37.07
2018-03-04T12:57:17.570Z,37.09